Terminal Aerodrome Forecast
Issued by NWS Pendleton, OR

Home | Current Version | Previous Version | Text Only | Print | Product List | Glossary On
Versions: 1 2 3 4 5 6 7 8 9 10 11 12 13
000
FTUS46 KPDT 071731
TAFPDT
TAF
KPDT 071731Z 0718/0818 29010G17KT P6SM FEW150 SCT300
     FM080300 30008KT P6SM FEW150 SCT250
     FM080600 17007KT P6SM FEW120 SCT250
     FM081100 14005KT P6SM SCT150 SCT250
     FM081600 28005KT P6SM FEW090 SCT150=

USA.gov is the U.S. government's official web portal to all federal, state and local government web resources and services.